sensor_id;sensor_type;location;lat;lon;timestamp;temperature;humidity
1455;DHT22;721;48.168;12.818;2023-07-09T00:01:46;22.10;1.00
1455;DHT22;721;48.168;12.818;2023-07-09T00:04:13;22.20;1.00
1455;DHT22;721;48.168;12.818;2023-07-09T00:06:40;22.20;1.00
1455;DHT22;721;48.168;12.818;2023-07-09T00:09:12;22.20;1.00
1455;DHT22;721;48.168;12.818;2023-07-09T00:11:40;22.20;1.00
1455;DHT22;721;48.168;12.818;2023-07-09T00:14:08;22.20;1.00
1455;DHT22;721;48.168;12.818;2023-07-09T00:16:35;22.10;1.00
1455;DHT22;721;48.168;12.818;2023-07-09T00:19:03;22.00;1.00
1455;DHT22;721;48.168;12.818;2023-07-09T00:21:30;22.00;1.00
1455;DHT22;721;48.168;12.818;2023-07-09T00:23:59;21.90;1.00
1455;DHT22;721;48.168;12.818;2023-07-09T00:26:31;21.80;1.00
1455;DHT22;721;48.168;12.818;2023-07-09T00:28:58;21.90;1.00
1455;DHT22;721;48.168;12.818;2023-07-09T00:31:26;21.80;1.00
1455;DHT22;721;48.168;12.818;2023-07-09T00:33:53;21.80;1.00
1455;DHT22;721;48.168;12.818;2023-07-09T00:36:29;21.80;1.00
1455;DHT22;721;48.168;12.818;2023-07-09T00:38:57;21.80;1.00
1455;DHT22;721;48.168;12.818;2023-07-09T00:41:25;21.80;1.00
1455;DHT22;721;48.168;12.818;2023-07-09T00:43:55;21.80;1.00
1455;DHT22;721;48.168;12.818;2023-07-09T00:49:29;21.80;1.00
1455;DHT22;721;48.168;12.818;2023-07-09T00:51:58;21.70;1.00
1455;DHT22;721;48.168;12.818;2023-07-09T00:54:28;21.70;1.00
1455;DHT22;721;48.168;12.818;2023-07-09T00:57:00;21.70;1.00
1455;DHT22;721;48.168;12.818;2023-07-09T00:59:31;21.50;1.00
1455;DHT22;721;48.168;12.818;2023-07-09T01:01:58;21.40;1.00
1455;DHT22;721;48.168;12.818;2023-07-09T01:04:27;21.40;1.00
1455;DHT22;721;48.168;12.818;2023-07-09T01:06:56;21.40;1.00
1455;DHT22;721;48.168;12.818;2023-07-09T01:09:24;21.30;1.00
1455;DHT22;721;48.168;12.818;2023-07-09T01:11:51;21.30;1.00
1455;DHT22;721;48.168;12.818;2023-07-09T01:14:22;21.30;1.00
1455;DHT22;721;48.168;12.818;2023-07-09T01:16:55;21.30;1.00
1455;DHT22;721;48.168;12.818;2023-07-09T01:19:26;21.30;1.00
1455;DHT22;721;48.168;12.818;2023-07-09T01:21:56;21.10;1.00
1455;DHT22;721;48.168;12.818;2023-07-09T01:24:50;21.10;1.00
1455;DHT22;721;48.168;12.818;2023-07-09T01:27:19;21.10;1.00
1455;DHT22;721;48.168;12.818;2023-07-09T01:29:47;20.90;1.00
1455;DHT22;721;48.168;12.818;2023-07-09T01:32:16;20.90;1.00
1455;DHT22;721;48.168;12.818;2023-07-09T01:34:45;20.90;1.00
1455;DHT22;721;48.168;12.818;2023-07-09T01:37:17;20.90;1.00
1455;DHT22;721;48.168;12.818;2023-07-09T01:39:47;20.90;1.00
1455;DHT22;721;48.168;12.818;2023-07-09T01:42:14;20.90;1.00
1455;DHT22;721;48.168;12.818;2023-07-09T01:44:44;20.80;1.00
1455;DHT22;721;48.168;12.818;2023-07-09T01:47:12;20.70;1.00
1455;DHT22;721;48.168;12.818;2023-07-09T01:49:38;20.40;1.00
1455;DHT22;721;48.168;12.818;2023-07-09T01:52:07;20.30;1.00
1455;DHT22;721;48.168;12.818;2023-07-09T01:54:36;20.20;1.10
1455;DHT22;721;48.168;12.818;2023-07-09T01:57:15;19.90;3.60
1455;DHT22;721;48.168;12.818;2023-07-09T01:59:42;19.90;3.70
1455;DHT22;721;48.168;12.818;2023-07-09T02:02:10;19.90;4.10
1455;DHT22;721;48.168;12.818;2023-07-09T02:04:45;19.90;4.80
1455;DHT22;721;48.168;12.818;2023-07-09T02:07:12;20.00;4.30
1455;DHT22;721;48.168;12.818;2023-07-09T02:09:40;19.90;4.60
1455;DHT22;721;48.168;12.818;2023-07-09T02:12:08;19.90;4.90
1455;DHT22;721;48.168;12.818;2023-07-09T02:14:35;19.80;4.50
1455;DHT22;721;48.168;12.818;2023-07-09T02:17:02;19.90;4.20
1455;DHT22;721;48.168;12.818;2023-07-09T02:19:29;19.90;5.00
1455;DHT22;721;48.168;12.818;2023-07-09T02:21:56;19.90;5.00
1455;DHT22;721;48.168;12.818;2023-07-09T02:24:24;19.80;6.10
1455;DHT22;721;48.168;12.818;2023-07-09T02:26:53;19.70;6.70
1455;DHT22;721;48.168;12.818;2023-07-09T02:29:21;19.60;7.70
1455;DHT22;721;48.168;12.818;2023-07-09T02:31:48;19.70;5.80
1455;DHT22;721;48.168;12.818;2023-07-09T02:34:16;19.70;6.10
1455;DHT22;721;48.168;12.818;2023-07-09T02:36:43;19.80;5.30
1455;DHT22;721;48.168;12.818;2023-07-09T02:39:10;19.80;4.70
1455;DHT22;721;48.168;12.818;2023-07-09T02:41:38;19.90;4.30
1455;DHT22;721;48.168;12.818;2023-07-09T02:44:07;19.80;5.70
1455;DHT22;721;48.168;12.818;2023-07-09T02:46:34;19.70;5.10
1455;DHT22;721;48.168;12.818;2023-07-09T02:49:03;19.70;5.90
1455;DHT22;721;48.168;12.818;2023-07-09T02:51:30;19.50;6.60
1455;DHT22;721;48.168;12.818;2023-07-09T02:53:59;19.50;6.20
1455;DHT22;721;48.168;12.818;2023-07-09T02:56:26;19.50;6.40
1455;DHT22;721;48.168;12.818;2023-07-09T02:58:53;19.60;6.30
1455;DHT22;721;48.168;12.818;2023-07-09T03:01:21;19.60;5.80
1455;DHT22;721;48.168;12.818;2023-07-09T03:03:50;19.60;5.80
1455;DHT22;721;48.168;12.818;2023-07-09T03:06:19;19.70;5.90
1455;DHT22;721;48.168;12.818;2023-07-09T03:08:46;19.60;6.50
1455;DHT22;721;48.168;12.818;2023-07-09T03:11:14;19.60;6.20
1455;DHT22;721;48.168;12.818;2023-07-09T03:13:42;19.60;6.30
1455;DHT22;721;48.168;12.818;2023-07-09T03:16:09;19.50;6.90
1455;DHT22;721;48.168;12.818;2023-07-09T03:18:37;19.60;6.30
1455;DHT22;721;48.168;12.818;2023-07-09T03:21:04;19.40;7.60
1455;DHT22;721;48.168;12.818;2023-07-09T03:23:31;19.40;7.70
1455;DHT22;721;48.168;12.818;2023-07-09T03:25:58;19.40;9.30
1455;DHT22;721;48.168;12.818;2023-07-09T03:28:26;19.30;8.90
1455;DHT22;721;48.168;12.818;2023-07-09T03:30:54;19.30;8.90
1455;DHT22;721;48.168;12.818;2023-07-09T03:33:22;19.40;7.30
1455;DHT22;721;48.168;12.818;2023-07-09T03:35:51;19.40;7.00
1455;DHT22;721;48.168;12.818;2023-07-09T03:38:18;19.50;6.20
1455;DHT22;721;48.168;12.818;2023-07-09T03:40:49;19.50;7.00
1455;DHT22;721;48.168;12.818;2023-07-09T03:43:15;19.60;6.90
1455;DHT22;721;48.168;12.818;2023-07-09T03:45:44;19.60;6.70
1455;DHT22;721;48.168;12.818;2023-07-09T03:48:12;19.60;6.90
1455;DHT22;721;48.168;12.818;2023-07-09T03:50:39;19.60;6.60
1455;DHT22;721;48.168;12.818;2023-07-09T03:53:07;19.70;6.90
1455;DHT22;721;48.168;12.818;2023-07-09T03:55:34;19.70;7.30
1455;DHT22;721;48.168;12.818;2023-07-09T03:58:00;19.40;9.00
1455;DHT22;721;48.168;12.818;2023-07-09T04:00:28;19.40;8.60
1455;DHT22;721;48.168;12.818;2023-07-09T04:02:55;19.30;9.40
1455;DHT22;721;48.168;12.818;2023-07-09T04:05:23;19.40;9.00
1455;DHT22;721;48.168;12.818;2023-07-09T04:07:50;19.50;8.50
1455;DHT22;721;48.168;12.818;2023-07-09T04:10:19;19.60;8.70
1455;DHT22;721;48.168;12.818;2023-07-09T04:12:46;19.60;8.70
1455;DHT22;721;48.168;12.818;2023-07-09T04:15:13;19.70;9.20
1455;DHT22;721;48.168;12.818;2023-07-09T04:17:40;19.70;9.20
1455;DHT22;721;48.168;12.818;2023-07-09T04:20:08;19.70;9.80
1455;DHT22;721;48.168;12.818;2023-07-09T04:22:36;19.70;9.70
1455;DHT22;721;48.168;12.818;2023-07-09T04:25:04;19.80;9.30
1455;DHT22;721;48.168;12.818;2023-07-09T04:27:33;19.90;9.30
1455;DHT22;721;48.168;12.818;2023-07-09T04:30:00;20.00;9.40
1455;DHT22;721;48.168;12.818;2023-07-09T04:32:27;20.20;9.10
1455;DHT22;721;48.168;12.818;2023-07-09T04:34:53;20.30;8.70
1455;DHT22;721;48.168;12.818;2023-07-09T04:37:20;20.40;7.70
1455;DHT22;721;48.168;12.818;2023-07-09T04:39:47;20.50;6.90
1455;DHT22;721;48.168;12.818;2023-07-09T04:42:16;20.70;6.10
1455;DHT22;721;48.168;12.818;2023-07-09T04:44:45;20.80;6.10
1455;DHT22;721;48.168;12.818;2023-07-09T04:47:12;20.90;5.40
1455;DHT22;721;48.168;12.818;2023-07-09T04:49:39;21.00;4.90
1455;DHT22;721;48.168;12.818;2023-07-09T04:52:07;21.10;4.50
1455;DHT22;721;48.168;12.818;2023-07-09T04:54:37;21.20;4.50
1455;DHT22;721;48.168;12.818;2023-07-09T04:57:05;21.30;4.10
1455;DHT22;721;48.168;12.818;2023-07-09T04:59:32;21.40;4.00
1455;DHT22;721;48.168;12.818;2023-07-09T05:02:01;21.40;3.20
1455;DHT22;721;48.168;12.818;2023-07-09T05:04:27;21.50;2.60
1455;DHT22;721;48.168;12.818;2023-07-09T05:06:54;21.60;2.60
1455;DHT22;721;48.168;12.818;2023-07-09T05:09:21;21.70;2.60
1455;DHT22;721;48.168;12.818;2023-07-09T05:11:49;21.70;2.70
1455;DHT22;721;48.168;12.818;2023-07-09T05:14:17;21.80;2.00
1455;DHT22;721;48.168;12.818;2023-07-09T05:16:44;21.90;2.30
1455;DHT22;721;48.168;12.818;2023-07-09T05:19:13;21.90;2.10
1455;DHT22;721;48.168;12.818;2023-07-09T05:21:40;22.00;2.20
1455;DHT22;721;48.168;12.818;2023-07-09T05:24:07;22.20;2.20
1455;DHT22;721;48.168;12.818;2023-07-09T05:26:34;22.10;1.50
1455;DHT22;721;48.168;12.818;2023-07-09T05:29:02;22.20;1.90
1455;DHT22;721;48.168;12.818;2023-07-09T05:31:29;22.30;2.40
1455;DHT22;721;48.168;12.818;2023-07-09T05:33:56;22.30;1.60
1455;DHT22;721;48.168;12.818;2023-07-09T05:36:25;22.40;1.00
1455;DHT22;721;48.168;12.818;2023-07-09T05:38:52;22.40;1.00
1455;DHT22;721;48.168;12.818;2023-07-09T05:41:19;22.50;1.00
1455;DHT22;721;48.168;12.818;2023-07-09T05:43:46;22.60;1.00
1455;DHT22;721;48.168;12.818;2023-07-09T05:46:13;22.70;1.00
1455;DHT22;721;48.168;12.818;2023-07-09T05:48:40;22.80;1.00
1455;DHT22;721;48.168;12.818;2023-07-09T05:51:07;22.80;1.00
1455;DHT22;721;48.168;12.818;2023-07-09T05:53:35;22.90;1.00
1455;DHT22;721;48.168;12.818;2023-07-09T05:56:02;23.00;1.00
1455;DHT22;721;48.168;12.818;2023-07-09T05:58:28;23.00;1.00
1455;DHT22;721;48.168;12.818;2023-07-09T06:00:55;23.10;1.00
1455;DHT22;721;48.168;12.818;2023-07-09T06:03:25;23.10;1.00
1455;DHT22;721;48.168;12.818;2023-07-09T06:05:52;23.20;1.00
1455;DHT22;721;48.168;12.818;2023-07-09T06:08:19;23.30;1.00
1455;DHT22;721;48.168;12.818;2023-07-09T06:10:56;23.40;1.00
1455;DHT22;721;48.168;12.818;2023-07-09T06:13:24;23.50;1.00
1455;DHT22;721;48.168;12.818;2023-07-09T06:15:53;23.60;1.00
1455;DHT22;721;48.168;12.818;2023-07-09T06:18:21;23.70;1.00
1455;DHT22;721;48.168;12.818;2023-07-09T06:20:49;23.80;1.00
1455;DHT22;721;48.168;12.818;2023-07-09T06:23:17;24.00;1.00
1455;DHT22;721;48.168;12.818;2023-07-09T06:25:45;24.20;1.00
1455;DHT22;721;48.168;12.818;2023-07-09T06:28:15;24.30;1.00
1455;DHT22;721;48.168;12.818;2023-07-09T06:30:42;24.40;1.00
1455;DHT22;721;48.168;12.818;2023-07-09T06:33:10;24.50;1.00
1455;DHT22;721;48.168;12.818;2023-07-09T06:35:36;24.70;1.00
1455;DHT22;721;48.168;12.818;2023-07-09T06:38:04;24.80;1.00
1455;DHT22;721;48.168;12.818;2023-07-09T06:40:31;25.00;1.00
1455;DHT22;721;48.168;12.818;2023-07-09T06:42:58;25.10;1.00
1455;DHT22;721;48.168;12.818;2023-07-09T06:45:26;25.20;1.00
1455;DHT22;721;48.168;12.818;2023-07-09T06:47:53;25.30;1.00
1455;DHT22;721;48.168;12.818;2023-07-09T06:50:20;25.40;1.00
1455;DHT22;721;48.168;12.818;2023-07-09T06:52:46;25.50;1.00
1455;DHT22;721;48.168;12.818;2023-07-09T06:55:13;25.60;1.00
1455;DHT22;721;48.168;12.818;2023-07-09T06:57:40;25.70;1.00
1455;DHT22;721;48.168;12.818;2023-07-09T07:00:08;25.80;1.00
1455;DHT22;721;48.168;12.818;2023-07-09T07:02:36;25.90;1.00
1455;DHT22;721;48.168;12.818;2023-07-09T07:05:04;26.00;1.00
1455;DHT22;721;48.168;12.818;2023-07-09T07:07:30;26.10;1.00
1455;DHT22;721;48.168;12.818;2023-07-09T07:09:57;26.20;1.00
1455;DHT22;721;48.168;12.818;2023-07-09T07:12:25;26.30;1.00
1455;DHT22;721;48.168;12.818;2023-07-09T07:14:52;26.50;1.00
1455;DHT22;721;48.168;12.818;2023-07-09T07:17:20;26.70;1.00
1455;DHT22;721;48.168;12.818;2023-07-09T07:19:50;26.80;1.00
1455;DHT22;721;48.168;12.818;2023-07-09T07:22:17;26.90;1.00
1455;DHT22;721;48.168;12.818;2023-07-09T07:24:44;27.00;1.00
1455;DHT22;721;48.168;12.818;2023-07-09T07:27:10;27.20;1.00
1455;DHT22;721;48.168;12.818;2023-07-09T07:29:37;27.30;1.00
1455;DHT22;721;48.168;12.818;2023-07-09T07:32:05;27.30;1.00
1455;DHT22;721;48.168;12.818;2023-07-09T07:34:32;27.30;1.00
1455;DHT22;721;48.168;12.818;2023-07-09T07:37:00;27.40;1.00
1455;DHT22;721;48.168;12.818;2023-07-09T07:39:27;27.60;1.00
1455;DHT22;721;48.168;12.818;2023-07-09T07:41:54;27.70;1.00
1455;DHT22;721;48.168;12.818;2023-07-09T07:44:21;27.70;1.00
1455;DHT22;721;48.168;12.818;2023-07-09T07:46:48;27.70;1.00
1455;DHT22;721;48.168;12.818;2023-07-09T07:49:15;27.80;1.00
1455;DHT22;721;48.168;12.818;2023-07-09T07:51:41;27.70;1.00
1455;DHT22;721;48.168;12.818;2023-07-09T07:54:12;27.50;1.00
1455;DHT22;721;48.168;12.818;2023-07-09T07:56:39;27.40;1.00
1455;DHT22;721;48.168;12.818;2023-07-09T07:59:06;27.50;1.00
1455;DHT22;721;48.168;12.818;2023-07-09T08:01:33;27.70;1.00
1455;DHT22;721;48.168;12.818;2023-07-09T08:04:01;27.70;1.00
1455;DHT22;721;48.168;12.818;2023-07-09T08:06:28;27.80;1.00
1455;DHT22;721;48.168;12.818;2023-07-09T08:08:56;27.90;1.00
1455;DHT22;721;48.168;12.818;2023-07-09T08:11:25;28.10;1.00
1455;DHT22;721;48.168;12.818;2023-07-09T08:13:53;28.20;1.00
1455;DHT22;721;48.168;12.818;2023-07-09T08:16:20;28.40;1.00
1455;DHT22;721;48.168;12.818;2023-07-09T08:18:47;28.60;1.00
1455;DHT22;721;48.168;12.818;2023-07-09T08:21:14;28.80;1.00
1455;DHT22;721;48.168;12.818;2023-07-09T08:23:41;28.90;1.00
1455;DHT22;721;48.168;12.818;2023-07-09T08:26:07;28.90;1.00
1455;DHT22;721;48.168;12.818;2023-07-09T08:28:37;29.10;1.00
1455;DHT22;721;48.168;12.818;2023-07-09T08:31:04;29.20;1.00
1455;DHT22;721;48.168;12.818;2023-07-09T08:33:31;29.40;1.00
1455;DHT22;721;48.168;12.818;2023-07-09T08:35:59;29.40;1.00
1455;DHT22;721;48.168;12.818;2023-07-09T08:38:26;29.40;1.00
1455;DHT22;721;48.168;12.818;2023-07-09T08:40:57;29.30;1.00
1455;DHT22;721;48.168;12.818;2023-07-09T08:43:36;29.20;1.00
1455;DHT22;721;48.168;12.818;2023-07-09T08:46:13;29.30;1.00
1455;DHT22;721;48.168;12.818;2023-07-09T08:48:45;29.50;1.00
1455;DHT22;721;48.168;12.818;2023-07-09T08:51:17;29.50;1.00
1455;DHT22;721;48.168;12.818;2023-07-09T08:53:49;29.60;1.00
1455;DHT22;721;48.168;12.818;2023-07-09T08:56:17;29.70;1.00
1455;DHT22;721;48.168;12.818;2023-07-09T08:58:46;29.80;1.00
1455;DHT22;721;48.168;12.818;2023-07-09T09:01:18;29.90;1.00
1455;DHT22;721;48.168;12.818;2023-07-09T09:03:48;30.00;1.00
1455;DHT22;721;48.168;12.818;2023-07-09T09:06:17;30.00;1.00
1455;DHT22;721;48.168;12.818;2023-07-09T09:08:54;30.00;1.00
1455;DHT22;721;48.168;12.818;2023-07-09T09:11:25;30.10;1.00
1455;DHT22;721;48.168;12.818;2023-07-09T09:14:03;30.10;1.00
1455;DHT22;721;48.168;12.818;2023-07-09T09:16:35;30.20;1.00
1455;DHT22;721;48.168;12.818;2023-07-09T09:19:15;30.30;1.00
1455;DHT22;721;48.168;12.818;2023-07-09T09:21:44;30.20;1.00
1455;DHT22;721;48.168;12.818;2023-07-09T09:24:17;30.40;1.00
1455;DHT22;721;48.168;12.818;2023-07-09T09:26:48;30.60;1.00
1455;DHT22;721;48.168;12.818;2023-07-09T09:29:17;30.80;1.00
1455;DHT22;721;48.168;12.818;2023-07-09T09:31:48;30.90;1.00
1455;DHT22;721;48.168;12.818;2023-07-09T09:34:18;30.90;1.00
1455;DHT22;721;48.168;12.818;2023-07-09T09:36:45;31.00;1.00
1455;DHT22;721;48.168;12.818;2023-07-09T09:39:12;31.00;1.00
1455;DHT22;721;48.168;12.818;2023-07-09T09:41:38;31.10;1.00
1455;DHT22;721;48.168;12.818;2023-07-09T09:44:14;31.20;1.00
1455;DHT22;721;48.168;12.818;2023-07-09T09:46:44;31.30;1.00
1455;DHT22;721;48.168;12.818;2023-07-09T09:49:11;31.40;1.00
1455;DHT22;721;48.168;12.818;2023-07-09T09:51:40;31.60;1.00
1455;DHT22;721;48.168;12.818;2023-07-09T09:54:16;31.70;1.00
1455;DHT22;721;48.168;12.818;2023-07-09T09:56:43;31.50;1.00
1455;DHT22;721;48.168;12.818;2023-07-09T09:59:17;31.60;1.00
1455;DHT22;721;48.168;12.818;2023-07-09T10:01:46;31.70;1.00
1455;DHT22;721;48.168;12.818;2023-07-09T10:04:17;31.70;1.00
1455;DHT22;721;48.168;12.818;2023-07-09T10:06:46;31.80;1.00
1455;DHT22;721;48.168;12.818;2023-07-09T10:09:23;31.90;1.00
1455;DHT22;721;48.168;12.818;2023-07-09T10:11:55;31.70;1.00
1455;DHT22;721;48.168;12.818;2023-07-09T10:14:34;31.80;1.00
1455;DHT22;721;48.168;12.818;2023-07-09T10:17:14;31.90;1.00
1455;DHT22;721;48.168;12.818;2023-07-09T10:19:48;32.00;1.00
1455;DHT22;721;48.168;12.818;2023-07-09T10:22:23;32.00;1.00
1455;DHT22;721;48.168;12.818;2023-07-09T10:24:55;32.10;1.00
1455;DHT22;721;48.168;12.818;2023-07-09T10:27:31;32.30;1.00
1455;DHT22;721;48.168;12.818;2023-07-09T10:30:15;32.60;1.00
1455;DHT22;721;48.168;12.818;2023-07-09T10:32:56;32.80;1.00
1455;DHT22;721;48.168;12.818;2023-07-09T10:35:30;33.10;1.00
1455;DHT22;721;48.168;12.818;2023-07-09T10:38:14;33.30;1.00
1455;DHT22;721;48.168;12.818;2023-07-09T10:40:47;33.40;1.00
1455;DHT22;721;48.168;12.818;2023-07-09T10:43:20;33.30;1.00
1455;DHT22;721;48.168;12.818;2023-07-09T10:45:54;33.00;1.00
1455;DHT22;721;48.168;12.818;2023-07-09T10:48:33;33.00;1.00
1455;DHT22;721;48.168;12.818;2023-07-09T10:51:00;33.10;1.00
1455;DHT22;721;48.168;12.818;2023-07-09T10:53:31;33.10;1.00
1455;DHT22;721;48.168;12.818;2023-07-09T10:56:01;33.10;1.00
1455;DHT22;721;48.168;12.818;2023-07-09T10:58:34;33.20;1.00
1455;DHT22;721;48.168;12.818;2023-07-09T11:01:02;33.00;1.00
1455;DHT22;721;48.168;12.818;2023-07-09T11:03:38;32.80;1.00
1455;DHT22;721;48.168;12.818;2023-07-09T11:06:14;32.60;1.00
1455;DHT22;721;48.168;12.818;2023-07-09T11:08:42;32.70;1.00
1455;DHT22;721;48.168;12.818;2023-07-09T11:11:17;32.90;1.00
1455;DHT22;721;48.168;12.818;2023-07-09T11:13:50;33.00;1.00
1455;DHT22;721;48.168;12.818;2023-07-09T11:16:25;33.20;1.00
1455;DHT22;721;48.168;12.818;2023-07-09T11:18:58;33.40;1.00
1455;DHT22;721;48.168;12.818;2023-07-09T11:21:26;33.50;1.00
1455;DHT22;721;48.168;12.818;2023-07-09T11:23:54;33.60;1.00
1455;DHT22;721;48.168;12.818;2023-07-09T11:26:23;33.80;1.00
1455;DHT22;721;48.168;12.818;2023-07-09T11:28:52;33.90;1.00
1455;DHT22;721;48.168;12.818;2023-07-09T11:31:24;33.90;1.00
1455;DHT22;721;48.168;12.818;2023-07-09T11:34:02;34.00;1.00
1455;DHT22;721;48.168;12.818;2023-07-09T11:36:30;34.20;1.00
1455;DHT22;721;48.168;12.818;2023-07-09T11:38:57;34.30;1.00
1455;DHT22;721;48.168;12.818;2023-07-09T11:41:38;34.40;1.00
1455;DHT22;721;48.168;12.818;2023-07-09T11:44:17;34.50;1.00
1455;DHT22;721;48.168;12.818;2023-07-09T11:46:52;34.40;1.00
1455;DHT22;721;48.168;12.818;2023-07-09T11:49:25;34.20;1.00
1455;DHT22;721;48.168;12.818;2023-07-09T11:51:57;34.10;1.00
1455;DHT22;721;48.168;12.818;2023-07-09T11:54:26;33.90;1.00
1455;DHT22;721;48.168;12.818;2023-07-09T11:56:56;33.90;1.00
1455;DHT22;721;48.168;12.818;2023-07-09T11:59:24;33.60;1.00
1455;DHT22;721;48.168;12.818;2023-07-09T12:01:52;33.70;1.00
1455;DHT22;721;48.168;12.818;2023-07-09T12:04:32;33.90;1.00
1455;DHT22;721;48.168;12.818;2023-07-09T12:07:01;33.80;1.00
1455;DHT22;721;48.168;12.818;2023-07-09T12:09:33;33.80;1.00
1455;DHT22;721;48.168;12.818;2023-07-09T12:12:04;33.90;1.00
1455;DHT22;721;48.168;12.818;2023-07-09T12:14:31;34.10;1.00
1455;DHT22;721;48.168;12.818;2023-07-09T12:16:58;34.30;1.00
1455;DHT22;721;48.168;12.818;2023-07-09T12:19:29;34.50;1.00
1455;DHT22;721;48.168;12.818;2023-07-09T12:21:58;34.70;1.00
1455;DHT22;721;48.168;12.818;2023-07-09T12:24:27;34.80;1.00
1455;DHT22;721;48.168;12.818;2023-07-09T12:26:56;34.90;1.00
1455;DHT22;721;48.168;12.818;2023-07-09T12:29:24;35.00;1.00
1455;DHT22;721;48.168;12.818;2023-07-09T12:31:52;35.00;1.00
1455;DHT22;721;48.168;12.818;2023-07-09T12:34:18;35.00;1.00
1455;DHT22;721;48.168;12.818;2023-07-09T12:36:49;35.10;1.00
1455;DHT22;721;48.168;12.818;2023-07-09T12:39:18;35.20;1.00
1455;DHT22;721;48.168;12.818;2023-07-09T12:41:46;35.20;1.00
1455;DHT22;721;48.168;12.818;2023-07-09T12:44:18;35.10;1.00
1455;DHT22;721;48.168;12.818;2023-07-09T12:46:47;35.20;1.00
1455;DHT22;721;48.168;12.818;2023-07-09T12:49:22;35.10;1.00
1455;DHT22;721;48.168;12.818;2023-07-09T12:51:51;35.00;1.00
1455;DHT22;721;48.168;12.818;2023-07-09T12:54:20;35.10;1.00
1455;DHT22;721;48.168;12.818;2023-07-09T12:56:51;35.10;1.00
1455;DHT22;721;48.168;12.818;2023-07-09T12:59:19;35.20;1.00
1455;DHT22;721;48.168;12.818;2023-07-09T13:01:49;35.40;1.00
1455;DHT22;721;48.168;12.818;2023-07-09T13:04:16;35.50;1.00
1455;DHT22;721;48.168;12.818;2023-07-09T13:06:44;35.60;1.00
1455;DHT22;721;48.168;12.818;2023-07-09T13:09:18;35.70;1.00
1455;DHT22;721;48.168;12.818;2023-07-09T13:11:46;35.90;1.00
1455;DHT22;721;48.168;12.818;2023-07-09T13:14:18;36.10;1.00
1455;DHT22;721;48.168;12.818;2023-07-09T13:16:45;36.20;1.00
1455;DHT22;721;48.168;12.818;2023-07-09T13:19:12;36.20;1.00
1455;DHT22;721;48.168;12.818;2023-07-09T13:21:40;36.30;1.00
1455;DHT22;721;48.168;12.818;2023-07-09T13:24:15;36.30;1.00
1455;DHT22;721;48.168;12.818;2023-07-09T13:26:43;36.00;1.00
1455;DHT22;721;48.168;12.818;2023-07-09T13:29:14;36.10;1.00
1455;DHT22;721;48.168;12.818;2023-07-09T13:31:43;35.90;1.00
1455;DHT22;721;48.168;12.818;2023-07-09T13:34:18;35.80;1.00
1455;DHT22;721;48.168;12.818;2023-07-09T13:36:46;36.00;1.00
1455;DHT22;721;48.168;12.818;2023-07-09T13:39:14;36.20;1.00
1455;DHT22;721;48.168;12.818;2023-07-09T13:41:43;36.30;1.00
1455;DHT22;721;48.168;12.818;2023-07-09T13:44:15;36.30;1.00
1455;DHT22;721;48.168;12.818;2023-07-09T13:46:42;36.30;1.00
1455;DHT22;721;48.168;12.818;2023-07-09T13:49:10;36.50;1.00
1455;DHT22;721;48.168;12.818;2023-07-09T13:51:40;36.60;1.00
1455;DHT22;721;48.168;12.818;2023-07-09T13:54:17;36.70;1.00
1455;DHT22;721;48.168;12.818;2023-07-09T13:56:44;36.70;1.00
1455;DHT22;721;48.168;12.818;2023-07-09T13:59:16;36.80;1.00
1455;DHT22;721;48.168;12.818;2023-07-09T14:01:43;36.80;1.00
1455;DHT22;721;48.168;12.818;2023-07-09T14:04:12;36.70;1.00
1455;DHT22;721;48.168;12.818;2023-07-09T14:06:40;36.40;1.00
1455;DHT22;721;48.168;12.818;2023-07-09T14:09:08;36.50;1.00
1455;DHT22;721;48.168;12.818;2023-07-09T14:11:41;36.30;1.00
1455;DHT22;721;48.168;12.818;2023-07-09T14:14:17;36.40;1.00
1455;DHT22;721;48.168;12.818;2023-07-09T14:16:44;36.80;1.00
1455;DHT22;721;48.168;12.818;2023-07-09T14:19:13;36.20;1.00
1455;DHT22;721;48.168;12.818;2023-07-09T14:21:40;36.00;1.00
1455;DHT22;721;48.168;12.818;2023-07-09T14:24:17;36.20;1.00
1455;DHT22;721;48.168;12.818;2023-07-09T14:26:46;36.30;1.00
1455;DHT22;721;48.168;12.818;2023-07-09T14:29:13;36.50;1.00
1455;DHT22;721;48.168;12.818;2023-07-09T14:31:41;36.70;1.00
1455;DHT22;721;48.168;12.818;2023-07-09T14:34:19;37.10;1.00
1455;DHT22;721;48.168;12.818;2023-07-09T14:36:46;36.90;1.00
1455;DHT22;721;48.168;12.818;2023-07-09T14:39:13;37.10;1.00
1455;DHT22;721;48.168;12.818;2023-07-09T14:41:40;37.30;1.00
1455;DHT22;721;48.168;12.818;2023-07-09T14:44:19;37.40;1.00
1455;DHT22;721;48.168;12.818;2023-07-09T14:46:47;37.50;1.00
1455;DHT22;721;48.168;12.818;2023-07-09T14:49:15;37.40;1.00
1455;DHT22;721;48.168;12.818;2023-07-09T14:51:41;37.50;1.00
1455;DHT22;721;48.168;12.818;2023-07-09T14:54:18;37.60;1.00
1455;DHT22;721;48.168;12.818;2023-07-09T14:56:44;37.80;1.00
1455;DHT22;721;48.168;12.818;2023-07-09T14:59:12;38.00;1.00
1455;DHT22;721;48.168;12.818;2023-07-09T15:01:39;37.90;1.00
1455;DHT22;721;48.168;12.818;2023-07-09T15:04:22;38.10;1.00
1455;DHT22;721;48.168;12.818;2023-07-09T15:06:53;38.10;1.00
1455;DHT22;721;48.168;12.818;2023-07-09T15:09:21;37.90;1.00
1455;DHT22;721;48.168;12.818;2023-07-09T15:11:51;37.90;1.00
1455;DHT22;721;48.168;12.818;2023-07-09T15:14:19;37.90;1.00
1455;DHT22;721;48.168;12.818;2023-07-09T15:16:47;37.90;1.00
1455;DHT22;721;48.168;12.818;2023-07-09T15:19:15;38.00;1.00
1455;DHT22;721;48.168;12.818;2023-07-09T15:21:43;38.00;1.00
1455;DHT22;721;48.168;12.818;2023-07-09T15:24:11;37.90;1.00
1455;DHT22;721;48.168;12.818;2023-07-09T15:26:43;37.90;1.00
1455;DHT22;721;48.168;12.818;2023-07-09T15:29:13;38.00;1.00
1455;DHT22;721;48.168;12.818;2023-07-09T15:31:42;38.10;1.00
1455;DHT22;721;48.168;12.818;2023-07-09T15:34:09;38.00;1.00
1455;DHT22;721;48.168;12.818;2023-07-09T15:36:37;38.00;1.00
1455;DHT22;721;48.168;12.818;2023-07-09T15:39:04;38.30;1.00
1455;DHT22;721;48.168;12.818;2023-07-09T15:41:30;38.30;1.00
1455;DHT22;721;48.168;12.818;2023-07-09T15:43:57;38.50;1.00
1455;DHT22;721;48.168;12.818;2023-07-09T15:46:24;38.70;1.00
1455;DHT22;721;48.168;12.818;2023-07-09T15:48:54;38.90;1.00
1455;DHT22;721;48.168;12.818;2023-07-09T15:51:22;38.70;1.00
1455;DHT22;721;48.168;12.818;2023-07-09T15:53:49;38.80;1.00
1455;DHT22;721;48.168;12.818;2023-07-09T15:56:22;38.70;1.00
1455;DHT22;721;48.168;12.818;2023-07-09T15:58:51;38.80;1.00
1455;DHT22;721;48.168;12.818;2023-07-09T16:01:19;38.50;1.00
1455;DHT22;721;48.168;12.818;2023-07-09T16:03:47;38.60;1.00
1455;DHT22;721;48.168;12.818;2023-07-09T16:06:17;38.80;1.00
1455;DHT22;721;48.168;12.818;2023-07-09T16:08:44;38.80;1.00
1455;DHT22;721;48.168;12.818;2023-07-09T16:11:14;38.90;1.00
1455;DHT22;721;48.168;12.818;2023-07-09T16:13:41;38.90;1.00
1455;DHT22;721;48.168;12.818;2023-07-09T16:16:12;38.80;1.00
1455;DHT22;721;48.168;12.818;2023-07-09T16:18:39;38.80;1.00
1455;DHT22;721;48.168;12.818;2023-07-09T16:21:20;38.80;1.00
1455;DHT22;721;48.168;12.818;2023-07-09T16:23:47;39.00;1.00
1455;DHT22;721;48.168;12.818;2023-07-09T16:26:14;39.20;1.00
1455;DHT22;721;48.168;12.818;2023-07-09T16:28:41;39.20;1.00
1455;DHT22;721;48.168;12.818;2023-07-09T16:31:08;39.20;1.00
1455;DHT22;721;48.168;12.818;2023-07-09T16:33:35;39.20;1.00